createdAt,value
2023-05-10T00:00:39.810Z,13.30
2023-05-10T00:03:08.280Z,13.31
2023-05-10T00:05:36.704Z,13.37
2023-05-10T00:08:05.043Z,13.41
2023-05-10T00:10:33.063Z,13.33
2023-05-10T00:13:01.298Z,13.33
2023-05-10T00:15:31.439Z,13.30
2023-05-10T00:18:01.461Z,13.31
2023-05-10T00:20:29.913Z,13.30
2023-05-10T00:22:58.722Z,13.24
2023-05-10T00:25:27.325Z,13.21
2023-05-10T00:27:56.295Z,13.29
2023-05-10T00:30:24.632Z,13.23
2023-05-10T00:32:54.296Z,13.23
2023-05-10T00:35:24.800Z,13.25
2023-05-10T00:37:53.006Z,13.22
2023-05-10T00:40:23.971Z,13.20
2023-05-10T00:42:57.235Z,13.19
2023-05-10T00:45:26.776Z,13.15
2023-05-10T00:47:57.173Z,13.17
2023-05-10T00:50:27.086Z,13.06
2023-05-10T00:52:55.600Z,13.09
2023-05-10T00:55:24.638Z,13.10
2023-05-10T00:57:53.523Z,13.07
2023-05-10T01:00:22.667Z,13.03
2023-05-10T01:02:52.214Z,13.00
2023-05-10T01:05:20.805Z,13.04
2023-05-10T01:07:51.052Z,13.01
2023-05-10T01:10:19.487Z,13.00
2023-05-10T01:12:49.273Z,12.97
2023-05-10T01:15:19.167Z,12.96
2023-05-10T01:17:49.414Z,13.00
2023-05-10T01:20:18.397Z,12.95
2023-05-10T01:23:23.041Z,12.94
2023-05-10T01:26:27.024Z,12.93
2023-05-10T01:29:21.209Z,12.96
2023-05-10T01:32:14.676Z,12.94
2023-05-10T01:34:55.160Z,12.94
2023-05-10T01:37:28.195Z,12.95
2023-05-10T01:40:02.445Z,12.94
2023-05-10T01:42:37.501Z,12.97
2023-05-10T01:45:15.450Z,12.93
2023-05-10T01:47:46.838Z,12.89
2023-05-10T01:50:20.192Z,12.88
2023-05-10T01:52:54.010Z,12.82
2023-05-10T01:55:25.405Z,12.87
2023-05-10T01:58:00.724Z,12.84
2023-05-10T02:00:31.285Z,12.81
2023-05-10T02:03:04.170Z,12.78
2023-05-10T02:05:35.509Z,12.82
2023-05-10T02:08:07.144Z,12.85
2023-05-10T02:10:37.183Z,12.87
2023-05-10T02:13:09.587Z,12.87
2023-05-10T02:15:39.548Z,12.82
2023-05-10T02:18:11.220Z,12.81
2023-05-10T02:20:40.825Z,12.83
2023-05-10T02:23:11.583Z,12.76
2023-05-10T02:25:41.135Z,12.78
2023-05-10T02:28:12.407Z,12.78
2023-05-10T02:30:41.264Z,12.77
2023-05-10T02:33:11.775Z,12.75
2023-05-10T02:35:40.542Z,12.78
2023-05-10T02:38:12.593Z,12.76
2023-05-10T02:40:43.674Z,12.76
2023-05-10T02:43:15.483Z,12.73
2023-05-10T02:45:45.373Z,12.72
2023-05-10T02:48:15.065Z,12.72
2023-05-10T02:50:47.337Z,12.72
2023-05-10T02:53:22.895Z,12.74
2023-05-10T02:55:53.935Z,12.76
2023-05-10T02:58:22.415Z,12.72
2023-05-10T03:00:51.374Z,12.67
2023-05-10T03:03:22.108Z,12.68
2023-05-10T03:05:55.121Z,12.66
2023-05-10T03:08:24.411Z,12.66
2023-05-10T03:11:03.811Z,12.69
2023-05-10T03:13:38.639Z,12.68
2023-05-10T03:16:12.678Z,12.67
2023-05-10T03:18:47.006Z,12.66
2023-05-10T03:21:18.784Z,12.71
2023-05-10T03:23:53.315Z,12.68
2023-05-10T03:26:27.661Z,12.71
2023-05-10T03:29:04.403Z,12.78
2023-05-10T03:31:32.910Z,12.78
2023-05-10T03:34:03.710Z,12.81
2023-05-10T03:36:34.531Z,12.81
2023-05-10T03:39:03.336Z,12.82
2023-05-10T03:41:31.715Z,12.82
2023-05-10T03:44:02.959Z,12.84
2023-05-10T03:46:31.251Z,12.88
2023-05-10T03:49:00.291Z,12.90
2023-05-10T03:51:29.933Z,12.95
2023-05-10T03:53:58.216Z,12.93
2023-05-10T03:56:29.303Z,12.87
2023-05-10T03:58:57.451Z,12.85
2023-05-10T04:01:25.909Z,12.85
2023-05-10T04:03:56.539Z,12.86
2023-05-10T04:06:24.862Z,12.84
2023-05-10T04:08:56.271Z,12.85
2023-05-10T04:11:25.646Z,12.82
2023-05-10T04:13:54.156Z,12.79
2023-05-10T04:16:22.364Z,12.78
2023-05-10T04:18:50.681Z,12.78
2023-05-10T04:21:19.067Z,12.88
2023-05-10T04:23:47.425Z,12.83
2023-05-10T04:26:17.387Z,12.82
2023-05-10T04:28:47.985Z,12.78
2023-05-10T04:31:16.636Z,12.76
2023-05-10T04:33:44.932Z,12.72
2023-05-10T04:36:16.067Z,12.74
2023-05-10T04:38:44.764Z,12.75
2023-05-10T04:41:13.895Z,12.77
2023-05-10T04:43:44.025Z,12.75
2023-05-10T04:46:12.232Z,12.69
2023-05-10T04:48:41.445Z,12.75
2023-05-10T04:51:20.281Z,12.82
2023-05-10T04:54:04.693Z,12.83
2023-05-10T04:56:34.760Z,12.83
2023-05-10T04:59:04.532Z,12.85
2023-05-10T05:01:35.815Z,12.96
2023-05-10T05:04:04.246Z,12.95
2023-05-10T05:06:34.318Z,13.01
2023-05-10T05:09:05.897Z,12.96
2023-05-10T05:11:41.188Z,12.98
2023-05-10T05:14:17.042Z,12.98
2023-05-10T05:16:50.413Z,12.87
2023-05-10T05:19:21.647Z,13.10
2023-05-10T05:22:00.567Z,13.16
2023-05-10T05:24:28.872Z,13.16
2023-05-10T05:27:06.944Z,13.26
2023-05-10T05:29:36.467Z,13.37
2023-05-10T05:32:09.821Z,13.41
2023-05-10T05:34:38.231Z,13.44
2023-05-10T05:37:06.826Z,13.56
2023-05-10T05:39:38.308Z,13.58
2023-05-10T05:42:06.865Z,13.56
2023-05-10T05:44:37.291Z,13.64
2023-05-10T05:47:06.369Z,13.58
2023-05-10T05:49:37.630Z,13.64
2023-05-10T05:52:06.735Z,13.66
2023-05-10T05:54:34.891Z,13.61
2023-05-10T05:57:03.153Z,13.67
2023-05-10T05:59:32.575Z,13.73
2023-05-10T06:02:02.465Z,13.67
2023-05-10T06:04:31.054Z,13.58
2023-05-10T06:06:59.418Z,13.73
2023-05-10T06:09:28.040Z,13.83
2023-05-10T06:11:56.362Z,13.86
2023-05-10T06:14:24.844Z,13.71
2023-05-10T06:16:53.412Z,13.79
2023-05-10T06:19:23.352Z,13.77
2023-05-10T06:21:53.712Z,13.90
2023-05-10T06:24:22.780Z,13.85
2023-05-10T06:26:51.816Z,13.76
2023-05-10T06:29:19.977Z,13.64
2023-05-10T06:31:48.722Z,13.84
2023-05-10T06:34:17.369Z,14.01
2023-05-10T06:36:47.718Z,14.02
2023-05-10T06:39:17.274Z,14.05
2023-05-10T06:41:45.798Z,14.14
2023-05-10T06:44:14.190Z,14.31
2023-05-10T06:46:43.213Z,14.32
2023-05-10T06:49:11.621Z,14.72
2023-05-10T06:51:39.741Z,14.77
2023-05-10T06:54:09.790Z,14.88
2023-05-10T06:56:38.003Z,15.22
2023-05-10T06:59:06.768Z,15.30
2023-05-10T07:01:35.330Z,15.14
2023-05-10T07:04:03.554Z,14.99
2023-05-10T07:06:34.810Z,14.98
2023-05-10T07:09:03.222Z,14.99
2023-05-10T07:11:32.794Z,15.08
2023-05-10T07:14:01.047Z,15.07
2023-05-10T07:16:29.689Z,15.15
2023-05-10T07:18:58.123Z,15.34
2023-05-10T07:21:29.381Z,15.51
2023-05-10T07:23:57.658Z,15.65
2023-05-10T07:26:26.203Z,15.40
2023-05-10T07:28:56.349Z,15.29
2023-05-10T07:31:24.434Z,15.21
2023-05-10T07:33:52.666Z,15.36
2023-05-10T07:36:21.161Z,15.21
2023-05-10T07:38:50.821Z,15.26
2023-05-10T07:41:18.913Z,15.48
2023-05-10T07:43:47.570Z,15.72
2023-05-10T07:46:17.526Z,15.44
2023-05-10T07:48:45.634Z,15.79
2023-05-10T07:51:13.851Z,16.26
2023-05-10T07:53:42.861Z,16.13
2023-05-10T07:56:26.390Z,16.59
2023-05-10T07:58:54.931Z,16.61
2023-05-10T08:01:25.351Z,17.29
2023-05-10T08:03:54.685Z,17.02
2023-05-10T08:06:23.465Z,17.04
2023-05-10T08:08:53.118Z,16.95
2023-05-10T08:11:22.135Z,17.34
2023-05-10T08:13:52.767Z,17.58
2023-05-10T08:16:21.654Z,17.58
2023-05-10T08:18:51.654Z,17.76
2023-05-10T08:21:20.332Z,17.17
2023-05-10T08:23:52.395Z,17.25
2023-05-10T08:26:22.023Z,17.11
2023-05-10T08:28:50.510Z,17.08
2023-05-10T08:31:19.275Z,17.30
2023-05-10T08:33:47.569Z,17.12
2023-05-10T08:36:22.911Z,17.22
2023-05-10T08:38:52.490Z,17.71
2023-05-10T08:41:22.856Z,17.65
2023-05-10T08:45:19.544Z,18.49
2023-05-10T08:47:59.547Z,18.97
2023-05-10T08:50:33.596Z,19.94
2023-05-10T08:53:07.119Z,20.07
2023-05-10T08:55:59.772Z,20.34
2023-05-10T08:58:39.080Z,20.61
2023-05-10T09:01:18.788Z,20.10
2023-05-10T09:04:32.427Z,19.91
2023-05-10T09:07:55.960Z,20.23
2023-05-10T09:10:28.249Z,20.12
2023-05-10T09:12:59.379Z,19.73
2023-05-10T09:15:27.990Z,19.43
2023-05-10T09:17:59.240Z,19.43
2023-05-10T09:20:27.574Z,19.58
2023-05-10T09:22:56.022Z,19.99
2023-05-10T09:25:25.985Z,19.63
2023-05-10T09:27:54.805Z,20.41
2023-05-10T09:30:27.387Z,20.41
2023-05-10T09:32:56.729Z,20.64
2023-05-10T09:35:29.325Z,20.41
2023-05-10T09:38:03.211Z,20.78
2023-05-10T09:40:33.554Z,20.80
2023-05-10T09:43:03.297Z,20.07
2023-05-10T09:45:33.163Z,19.78
2023-05-10T09:48:05.332Z,19.67
2023-05-10T09:50:35.185Z,19.19
2023-05-10T09:53:05.118Z,19.46
2023-05-10T09:55:43.921Z,19.28
2023-05-10T09:58:12.732Z,18.80
2023-05-10T10:00:42.862Z,19.22
2023-05-10T10:03:15.006Z,19.24
2023-05-10T10:05:44.960Z,19.21
2023-05-10T10:08:14.263Z,19.03
2023-05-10T10:10:46.438Z,19.18
2023-05-10T10:13:18.188Z,19.25
2023-05-10T10:15:52.215Z,19.06
2023-05-10T10:18:25.359Z,18.95
2023-05-10T10:20:56.137Z,19.25
2023-05-10T10:23:24.703Z,19.52
2023-05-10T10:25:56.389Z,19.88
2023-05-10T10:28:34.654Z,20.38
2023-05-10T10:31:16.034Z,20.06
2023-05-10T10:34:03.474Z,19.86
2023-05-10T10:36:32.251Z,20.52
2023-05-10T10:39:05.712Z,20.77
2023-05-10T10:41:38.422Z,20.54
2023-05-10T10:44:37.586Z,20.29
2023-05-10T10:47:30.766Z,20.14
2023-05-10T10:50:07.251Z,20.32
2023-05-10T10:52:37.062Z,20.54
2023-05-10T10:55:09.296Z,20.59
2023-05-10T10:57:50.684Z,20.62
2023-05-10T11:00:31.730Z,21.21
2023-05-10T11:03:07.359Z,21.58
2023-05-10T11:05:42.551Z,21.76
2023-05-10T11:08:13.896Z,21.69
2023-05-10T11:10:51.116Z,21.56
2023-05-10T11:13:30.246Z,21.90
2023-05-10T11:16:00.484Z,21.40
2023-05-10T11:18:30.456Z,20.82
2023-05-10T11:21:01.154Z,20.26
2023-05-10T11:23:33.893Z,19.89
2023-05-10T11:26:03.008Z,20.11
2023-05-10T11:28:33.843Z,20.10
2023-05-10T11:31:04.530Z,20.07
2023-05-10T11:33:32.973Z,20.26
2023-05-10T11:36:02.579Z,20.43
2023-05-10T11:38:36.313Z,20.67
2023-05-10T11:41:04.785Z,20.60
2023-05-10T11:43:34.441Z,20.87
2023-05-10T11:46:02.648Z,20.83
2023-05-10T11:48:32.167Z,20.69
2023-05-10T11:51:00.328Z,20.76
2023-05-10T11:53:29.262Z,20.64
2023-05-10T11:55:59.114Z,20.55
2023-05-10T11:58:27.327Z,20.61
2023-05-10T12:00:57.050Z,20.74
2023-05-10T12:03:25.620Z,20.63
2023-05-10T12:05:54.129Z,20.80
2023-05-10T12:08:24.505Z,20.75
2023-05-10T12:10:53.352Z,20.63
2023-05-10T12:13:22.494Z,20.85
2023-05-10T12:15:51.016Z,21.13
2023-05-10T12:18:25.715Z,21.86
2023-05-10T12:20:54.501Z,22.37
2023-05-10T12:23:24.150Z,22.40
2023-05-10T12:25:55.272Z,22.17
2023-05-10T12:28:23.446Z,22.33
2023-05-10T12:30:56.940Z,22.03
2023-05-10T12:33:27.017Z,22.42
2023-05-10T12:35:57.339Z,22.53
2023-05-10T12:38:30.877Z,22.44
2023-05-10T12:41:00.375Z,22.31
2023-05-10T12:43:28.873Z,22.45
2023-05-10T12:45:57.441Z,21.84
2023-05-10T12:48:27.100Z,22.15
2023-05-10T12:50:55.355Z,21.74
2023-05-10T12:53:23.988Z,21.54
2023-05-10T12:55:52.702Z,21.40
2023-05-10T13:00:58.098Z,20.45
2023-05-10T13:03:28.444Z,20.01
2023-05-10T13:05:56.681Z,19.73
2023-05-10T13:08:26.424Z,19.75
2023-05-10T13:10:55.007Z,19.55
2023-05-10T13:13:23.288Z,19.47
2023-05-10T13:15:52.293Z,19.44
2023-05-10T13:18:20.722Z,19.49
2023-05-10T13:20:50.576Z,19.87
2023-05-10T13:23:18.750Z,20.31
2023-05-10T13:25:47.150Z,20.56
2023-05-10T13:28:15.883Z,20.46
2023-05-10T13:30:44.306Z,20.90
2023-05-10T13:33:12.449Z,21.35
2023-05-10T13:35:41.327Z,21.26
2023-05-10T13:38:11.254Z,20.80
2023-05-10T13:40:39.919Z,20.28
2023-05-10T13:43:08.604Z,19.73
2023-05-10T13:45:38.576Z,19.64
2023-05-10T13:48:07.146Z,19.70
2023-05-10T13:50:35.646Z,20.31
2023-05-10T13:53:04.260Z,20.38
2023-05-10T13:55:34.625Z,20.34
2023-05-10T13:58:02.867Z,20.23
2023-05-10T14:00:31.636Z,20.70
2023-05-10T14:03:00.280Z,20.63
2023-05-10T14:05:29.598Z,20.41
2023-05-10T14:07:58.357Z,20.19
2023-05-10T14:10:26.928Z,19.86
2023-05-10T14:12:56.677Z,20.01
2023-05-10T14:15:24.729Z,20.08
2023-05-10T14:17:53.602Z,20.53
2023-05-10T14:20:22.304Z,20.21
2023-05-10T14:22:50.871Z,20.15
2023-05-10T14:25:20.242Z,20.16
2023-05-10T14:27:48.796Z,20.47
2023-05-10T14:30:19.284Z,20.29
2023-05-10T14:32:47.673Z,20.47
2023-05-10T14:35:18.403Z,20.87
2023-05-10T14:37:47.850Z,20.77
2023-05-10T14:40:16.173Z,20.93
2023-05-10T14:42:46.127Z,20.75
2023-05-10T14:45:15.087Z,20.52
2023-05-10T14:47:47.888Z,20.50
2023-05-10T14:50:28.254Z,20.49
2023-05-10T14:53:03.686Z,20.17
2023-05-10T14:55:32.193Z,20.14
2023-05-10T14:58:00.457Z,19.83
2023-05-10T15:00:30.797Z,19.76
2023-05-10T15:03:00.973Z,19.80
2023-05-10T15:05:30.282Z,20.03
2023-05-10T15:07:58.886Z,19.96
2023-05-10T15:10:27.263Z,20.03
2023-05-10T15:12:55.912Z,19.99
2023-05-10T15:15:24.965Z,20.07
2023-05-10T15:17:53.420Z,20.12
2023-05-10T15:20:23.094Z,20.08
2023-05-10T15:22:52.777Z,20.02
2023-05-10T15:25:21.401Z,20.25
2023-05-10T15:27:50.257Z,19.72
2023-05-10T15:30:18.775Z,20.01
2023-05-10T15:32:46.901Z,19.94
2023-05-10T15:35:16.029Z,19.79
2023-05-10T15:37:45.626Z,19.89
2023-05-10T15:40:14.672Z,19.80
2023-05-10T15:42:42.941Z,19.66
2023-05-10T15:45:13.093Z,19.70
2023-05-10T15:47:41.437Z,19.50
2023-05-10T15:50:11.110Z,19.50
2023-05-10T15:52:39.385Z,19.66
2023-05-10T15:55:13.912Z,19.72
2023-05-10T15:57:43.903Z,19.54
2023-05-10T16:00:14.938Z,19.63
2023-05-10T16:02:43.386Z,19.68
2023-05-10T16:05:12.346Z,19.65
2023-05-10T16:07:41.990Z,19.82
2023-05-10T16:10:12.805Z,19.88
2023-05-10T16:12:41.366Z,20.12
2023-05-10T16:15:10.785Z,20.10
2023-05-10T16:17:38.983Z,19.89
2023-05-10T16:20:09.656Z,20.26
2023-05-10T16:22:38.254Z,19.72
2023-05-10T16:25:08.611Z,20.07
2023-05-10T16:27:38.304Z,20.21
2023-05-10T16:30:07.729Z,20.36
2023-05-10T16:32:36.094Z,20.09
2023-05-10T16:35:05.056Z,20.19
2023-05-10T16:37:33.287Z,19.58
2023-05-10T16:40:02.015Z,19.32
2023-05-10T16:42:30.812Z,19.69
2023-05-10T16:45:07.246Z,19.75
2023-05-10T16:47:36.079Z,19.55
2023-05-10T16:50:05.598Z,19.64
2023-05-10T16:52:34.456Z,19.39
2023-05-10T16:55:03.302Z,19.49
2023-05-10T16:57:32.915Z,19.41
2023-05-10T17:00:02.326Z,19.33
2023-05-10T17:02:30.534Z,19.17
2023-05-10T17:04:59.135Z,19.02
2023-05-10T17:07:29.358Z,18.85
2023-05-10T17:09:59.085Z,18.63
2023-05-10T17:12:27.590Z,18.55
2023-05-10T17:14:56.032Z,18.53
2023-05-10T17:17:25.819Z,18.51
2023-05-10T17:19:54.898Z,18.30
2023-05-10T17:22:23.333Z,18.34
2023-05-10T17:24:51.796Z,18.25
2023-05-10T17:27:20.149Z,18.17
2023-05-10T17:29:49.747Z,18.09
2023-05-10T17:32:17.764Z,18.07
2023-05-10T17:34:49.718Z,18.03
2023-05-10T17:37:24.185Z,17.97
2023-05-10T17:39:53.613Z,17.92
2023-05-10T17:42:21.801Z,17.75
2023-05-10T17:44:51.105Z,17.73
2023-05-10T17:47:19.899Z,17.59
2023-05-10T17:49:51.405Z,17.59
2023-05-10T17:52:21.471Z,17.53
2023-05-10T17:54:50.105Z,17.45
2023-05-10T17:57:19.073Z,17.38
2023-05-10T17:59:51.971Z,17.29
2023-05-10T18:02:20.218Z,17.28
2023-05-10T18:04:57.574Z,17.17
2023-05-10T18:07:29.932Z,17.12
2023-05-10T18:10:05.456Z,17.02
2023-05-10T18:12:34.887Z,16.94
2023-05-10T18:15:03.412Z,16.81
2023-05-10T18:17:33.487Z,16.67
2023-05-10T18:20:03.173Z,16.51
2023-05-10T18:22:31.105Z,16.44
2023-05-10T18:24:59.352Z,16.40
2023-05-10T18:27:28.360Z,16.29
2023-05-10T18:29:56.901Z,16.08
2023-05-10T18:32:25.591Z,15.97
2023-05-10T18:34:55.658Z,15.79
2023-05-10T18:37:26.090Z,15.62
2023-05-10T18:39:54.557Z,15.53
2023-05-10T18:42:23.388Z,15.42
2023-05-10T18:44:51.883Z,15.30
2023-05-10T18:47:22.749Z,15.22
2023-05-10T18:49:50.988Z,15.04
2023-05-10T18:52:19.470Z,14.96
2023-05-10T18:54:50.305Z,14.89
2023-05-10T18:57:18.698Z,14.81
2023-05-10T18:59:47.276Z,14.75
2023-05-10T19:02:19.756Z,14.61
2023-05-10T19:04:47.950Z,14.58
2023-05-10T19:07:16.212Z,14.49
2023-05-10T19:09:45.673Z,14.45
2023-05-10T19:12:15.497Z,14.42
2023-05-10T19:14:43.814Z,14.37
2023-05-10T19:17:14.351Z,14.32
2023-05-10T19:19:44.006Z,14.22
2023-05-10T19:22:12.387Z,14.22
2023-05-10T19:24:41.015Z,14.16
2023-05-10T19:27:10.076Z,14.07
2023-05-10T19:29:39.602Z,14.00
2023-05-10T19:32:09.642Z,13.96
2023-05-10T19:34:37.830Z,13.90
2023-05-10T19:37:05.965Z,13.88
2023-05-10T19:39:34.146Z,13.93
2023-05-10T19:42:05.634Z,13.95
2023-05-10T19:44:36.778Z,14.12
2023-05-10T19:47:09.343Z,14.14
2023-05-10T19:49:41.966Z,14.15
2023-05-10T19:52:13.167Z,14.16
2023-05-10T19:54:42.035Z,14.15
2023-05-10T19:57:11.955Z,14.15
2023-05-10T19:59:40.655Z,14.15
2023-05-10T20:02:10.137Z,14.18
2023-05-10T20:04:38.155Z,14.21
2023-05-10T20:07:07.350Z,14.07
2023-05-10T20:09:35.750Z,14.11
2023-05-10T20:12:04.635Z,14.04
2023-05-10T20:14:33.408Z,14.05
2023-05-10T20:17:01.779Z,13.95
2023-05-10T20:19:31.544Z,13.87
2023-05-10T20:21:59.845Z,13.84
2023-05-10T20:24:28.519Z,13.71
2023-05-10T20:26:57.565Z,13.63
2023-05-10T20:29:25.797Z,13.56
2023-05-10T20:31:54.285Z,13.51
2023-05-10T20:34:22.654Z,13.47
2023-05-10T20:36:54.088Z,13.41
2023-05-10T20:39:22.260Z,13.30
2023-05-10T20:41:50.634Z,13.25
2023-05-10T20:44:18.970Z,13.26
2023-05-10T20:46:47.279Z,13.24
2023-05-10T20:49:15.468Z,13.21
2023-05-10T20:51:44.189Z,13.12
2023-05-10T20:54:14.023Z,13.10
2023-05-10T20:56:42.316Z,13.00
2023-05-10T20:59:11.278Z,12.91
2023-05-10T21:01:39.965Z,12.85
2023-05-10T21:04:08.137Z,12.81
2023-05-10T21:06:36.544Z,12.71
2023-05-10T21:09:06.505Z,12.62
2023-05-10T21:11:36.590Z,12.57
2023-05-10T21:14:04.867Z,12.55
2023-05-10T21:16:33.661Z,12.46
2023-05-10T21:19:01.814Z,12.43
2023-05-10T21:21:32.572Z,12.35
2023-05-10T21:24:02.282Z,12.28
2023-05-10T21:26:31.474Z,12.24
2023-05-10T21:29:01.212Z,12.20
2023-05-10T21:31:29.858Z,12.14
2023-05-10T21:33:58.543Z,12.08
2023-05-10T21:36:28.030Z,12.08
2023-05-10T21:38:57.499Z,12.01
2023-05-10T21:41:25.641Z,11.97
2023-05-10T21:43:54.325Z,11.89
2023-05-10T21:46:24.403Z,11.84
2023-05-10T21:48:52.632Z,11.83
2023-05-10T21:51:22.383Z,11.80
2023-05-10T21:53:50.674Z,11.77
2023-05-10T21:56:19.072Z,11.74
2023-05-10T21:58:47.237Z,11.67
2023-05-10T22:01:18.131Z,11.66
2023-05-10T22:03:47.901Z,11.62
2023-05-10T22:06:16.238Z,11.57
2023-05-10T22:08:44.799Z,11.53
2023-05-10T22:11:13.174Z,11.51
2023-05-10T22:13:43.365Z,11.46
2023-05-10T22:16:11.617Z,11.45
2023-05-10T22:18:40.158Z,11.44
2023-05-10T22:21:12.003Z,11.41
2023-05-10T22:23:40.161Z,11.38
2023-05-10T22:26:08.764Z,11.34
2023-05-10T22:28:37.245Z,11.30
2023-05-10T22:31:10.607Z,11.28
2023-05-10T22:33:38.813Z,11.26
2023-05-10T22:36:07.365Z,11.22
2023-05-10T22:38:37.814Z,11.16
2023-05-10T22:41:06.543Z,11.10
2023-05-10T22:43:34.761Z,11.04
2023-05-10T22:46:03.021Z,10.99
2023-05-10T22:48:32.384Z,10.95
2023-05-10T22:51:00.763Z,10.95
2023-05-10T22:53:28.885Z,10.93
2023-05-10T22:55:58.927Z,10.92
2023-05-10T22:58:29.324Z,10.93
2023-05-10T23:00:57.670Z,10.92
2023-05-10T23:03:26.838Z,10.90
2023-05-10T23:05:55.299Z,10.87
2023-05-10T23:08:24.734Z,10.85
2023-05-10T23:10:54.519Z,10.82
2023-05-10T23:13:24.824Z,10.81
2023-05-10T23:15:54.289Z,10.79
2023-05-10T23:18:22.570Z,10.76
2023-05-10T23:20:51.544Z,10.75
2023-05-10T23:23:19.890Z,10.73
2023-05-10T23:25:50.401Z,10.69
2023-05-10T23:28:18.836Z,10.65
2023-05-10T23:30:48.389Z,10.64
2023-05-10T23:33:16.454Z,10.65
2023-05-10T23:35:47.340Z,10.63
2023-05-10T23:38:17.487Z,10.63
2023-05-10T23:40:49.528Z,10.59
2023-05-10T23:43:19.773Z,10.58
2023-05-10T23:45:55.310Z,10.54
2023-05-10T23:48:24.100Z,10.52
2023-05-10T23:50:52.534Z,10.49
2023-05-10T23:53:23.211Z,10.47
2023-05-10T23:55:51.607Z,10.44
2023-05-10T23:58:21.169Z,10.41
